Nebraska City, NE (68410)

4:20 PM CST on February 13, 2016 (GMT -0600)
Nebraska City Municipal | | Change Station
CLOSE
Current Station
Airport
Location: Nebraska City,
Elevation: 1161 ft
Nearby Weather Stations

Elev 1161 ft 40.61 °N, 95.86 °W | Updated 25 minutes ago

Overcast
Overcast
19 °F
Feels Like 7 °F
N
12
Wind Variable Wind from SE
Gusts 17 mph

Today
High -- | Low -- °F
--% Chance of Precip.
Yesterday
High -- | Low -- °F
Precip. -- in
Pressure 30.34 in
Visibility 10.0 miles
Clouds Overcast 4400 ft
Windchill 7 °F
Dew Point 1 °F
Humidity 45%
Rainfall 0.00 in
Snow Depth Not available.
7:20 AM 5:55 PM
Waxing Crescent, 34% visible
METAR KAFK 132155Z AUTO 13010G15KT 10SM OVC044 M07/M17 A3034 RMK AO2 T10711173
Pressure 30.34 in
Visibility 10.0 miles
Clouds Overcast 4400 ft
Windchill 7 °F
Dew Point 1 °F
Humidity 45%
Rainfall 0.00 in
Snow Depth Not available.
7:20 AM 5:55 PM
Waxing Crescent, 34% visible
METAR KAFK 132155Z AUTO 13010G15KT 10SM OVC044 M07/M17 A3034 RMK AO2 T10711173

10-Day Weather Forecast

Almanac

Astronomy

Feb. 13, 2016 Rise Set
Actual Time
Civil Twilight
Nautical Twilight
Astronomical Twilight
Moon
Length of Visible Light
Length of Day
Tomorrow will be .
, % of the Moon is Illuminated

Today's Extremes

State Highs State Lows

Community

WunderPhotos

Upload Photos

1,892,687 photos uploaded!

WunderBlog® & News

Nearby

Air Quality

  Air Quality AQ Index Pollutant
Not available.

Snow Depth

Station Depth Elevation

Earthquake Activity

City Distance Mag. Time & Date
Minimum magnitude displayed is 2.5.

Coastal Water Temperatures

Place Temperature

Stations

Nearby Weather Stations

Station Location Temp. Windchill Dew Point Humidity Wind Precip. Elev Updated Type
                   

Watches & Warnings

There are currently no watches in effect.